Time;durP1;ratioP1;P1;durP2;ratioP2;P2;SDS_P1;SDS_P2;PMS_P1;PMS_P2;Temp;Humidity;BMP_temperature;BMP_pressure;BME280_temperature;BME280_humidity;BME280_pressure;Samples;Min_cycle;Max_cycle;Signal;HPM_P1;HPM_P2
2024/01/19 00:00:04;;;;;;;2.67;1.77;;;0.00;99.90;;;;;;5038493;28;20268;-48
2024/01/19 00:02:31;;;;;;;5.17;1.73;;;0.00;99.90;;;;;;5041291;28;20230;-47
2024/01/19 00:04:59;;;;;;;2.43;1.83;;;0.00;99.90;;;;;;5032508;28;20937;-50
2024/01/19 00:07:32;;;;;;;3.57;2.00;;;0.10;99.90;;;;;;5045355;28;20260;-48
2024/01/19 00:09:59;;;;;;;5.00;2.03;;;0.00;99.90;;;;;;5030731;28;20215;-48
2024/01/19 00:12:26;;;;;;;3.37;1.83;;;0.00;99.90;;;;;;5037683;28;20209;-49
2024/01/19 00:14:52;;;;;;;4.20;2.60;;;0.00;99.90;;;;;;5011653;28;20268;-49
2024/01/19 00:17:19;;;;;;;5.23;2.33;;;0.00;99.90;;;;;;5037262;28;20202;-49
2024/01/19 00:19:46;;;;;;;3.50;2.13;;;0.00;99.90;;;;;;5032411;28;20227;-48
2024/01/19 00:22:14;;;;;;;2.90;2.00;;;0.00;99.90;;;;;;5033271;28;20947;-48
2024/01/19 00:24:41;;;;;;;2.43;2.07;;;0.10;99.90;;;;;;5032981;28;20268;-50
2024/01/19 00:27:08;;;;;;;2.30;2.00;;;0.10;99.90;;;;;;5031717;28;20218;-48
2024/01/19 00:29:35;;;;;;;2.50;1.50;;;0.10;99.90;;;;;;5011372;28;20249;-49
2024/01/19 00:32:02;;;;;;;5.33;1.80;;;0.10;99.90;;;;;;5033052;28;20248;-46
2024/01/19 00:34:29;;;;;;;2.57;1.43;;;0.10;99.90;;;;;;5041099;28;20240;-48
2024/01/19 00:36:55;;;;;;;3.53;1.53;;;0.20;99.90;;;;;;5028000;28;20229;-51
2024/01/19 00:39:24;;;;;;;3.07;1.33;;;0.20;99.90;;;;;;5039783;28;20222;-47
2024/01/19 00:41:51;;;;;;;1.67;1.57;;;0.20;99.90;;;;;;5031546;28;20219;-49
2024/01/19 00:44:17;;;;;;;5.93;1.90;;;0.20;99.90;;;;;;5011688;28;20203;-49
2024/01/19 00:46:44;;;;;;;3.37;1.73;;;0.20;99.90;;;;;;5037178;28;20605;-49
2024/01/19 00:49:11;;;;;;;2.60;1.70;;;0.20;99.90;;;;;;5036748;28;20215;-47
2024/01/19 00:51:38;;;;;;;4.07;2.10;;;0.20;99.90;;;;;;5042233;28;20202;-48
2024/01/19 00:54:05;;;;;;;3.70;1.50;;;0.10;99.90;;;;;;5034470;28;20213;-46
2024/01/19 00:56:33;;;;;;;2.90;1.83;;;0.10;99.90;;;;;;5033069;28;20273;-49
2024/01/19 00:59:00;;;;;;;6.57;1.83;;;0.10;99.90;;;;;;5007409;28;20446;-47
2024/01/19 01:01:27;;;;;;;1.87;1.63;;;0.10;99.90;;;;;;5030711;28;20203;-48
2024/01/19 01:03:55;;;;;;;1.93;1.83;;;0.10;99.90;;;;;;5040823;28;20213;-49
2024/01/19 01:06:22;;;;;;;2.20;1.83;;;0.10;99.90;;;;;;5038601;28;20270;-51
2024/01/19 01:08:48;;;;;;;2.80;1.50;;;0.10;99.90;;;;;;5030797;28;20974;-51
2024/01/19 01:11:15;;;;;;;3.33;1.63;;;0.10;99.90;;;;;;5031649;28;20210;-52
2024/01/19 01:13:43;;;;;;;2.80;1.90;;;0.10;99.90;;;;;;5044389;28;20912;-47
2024/01/19 01:16:10;;;;;;;1.93;1.37;;;0.10;99.90;;;;;;5011882;28;20268;-47
2024/01/19 01:18:37;;;;;;;2.10;1.50;;;0.10;99.90;;;;;;5036387;28;20273;-50
2024/01/19 01:21:04;;;;;;;2.03;1.20;;;0.10;99.90;;;;;;5035010;28;20747;-48
2024/01/19 01:23:31;;;;;;;1.20;1.10;;;0.10;99.90;;;;;;5025768;28;20246;-49
2024/01/19 01:25:58;;;;;;;1.50;1.40;;;0.20;99.90;;;;;;5039102;28;20864;-48
2024/01/19 01:28:25;;;;;;;1.50;1.37;;;0.20;99.90;;;;;;5026615;28;20223;-48
2024/01/19 01:30:53;;;;;;;3.27;1.30;;;0.20;99.90;;;;;;5011206;28;20209;-49
2024/01/19 01:33:20;;;;;;;1.60;1.40;;;0.20;99.90;;;;;;5035320;28;20915;-50
2024/01/19 01:35:47;;;;;;;1.80;1.10;;;0.20;99.90;;;;;;5035342;28;20198;-50
2024/01/19 01:38:15;;;;;;;1.97;1.03;;;0.20;99.90;;;;;;5038217;28;20281;-48
2024/01/19 01:40:42;;;;;;;1.07;0.97;;;0.20;99.90;;;;;;5023398;28;20194;-48
2024/01/19 01:43:09;;;;;;;1.43;1.33;;;0.10;99.90;;;;;;5034991;28;20222;-48
2024/01/19 01:45:36;;;;;;;1.70;1.00;;;0.10;99.90;;;;;;5006066;28;21146;-49
2024/01/19 01:48:05;;;;;;;2.83;1.20;;;0.10;99.90;;;;;;5046468;28;20202;-51
2024/01/19 01:50:31;;;;;;;3.10;1.43;;;0.10;99.90;;;;;;5038657;28;20210;-48
2024/01/19 01:52:58;;;;;;;1.70;1.10;;;0.10;99.90;;;;;;5047154;28;20722;-49
2024/01/19 01:55:25;;;;;;;3.53;1.23;;;0.10;99.90;;;;;;5032799;28;20256;-48
2024/01/19 01:57:52;;;;;;;1.70;1.20;;;0.10;99.90;;;;;;5038193;28;20232;-47
2024/01/19 02:00:19;;;;;;;1.37;1.27;;;0.10;99.90;;;;;;5025168;28;20210;-47
2024/01/19 02:02:48;;;;;;;4.43;1.40;;;0.10;99.90;;;;;;5003463;28;20213;-47
2024/01/19 02:05:16;;;;;;;2.00;1.17;;;0.10;99.90;;;;;;5041664;28;20261;-48
2024/01/19 02:07:43;;;;;;;3.27;1.90;;;0.10;99.90;;;;;;5036801;28;20193;-50
2024/01/19 02:10:10;;;;;;;1.17;1.10;;;0.00;99.90;;;;;;5042515;28;20221;-47
2024/01/19 02:12:38;;;;;;;4.93;1.60;;;0.00;99.90;;;;;;5026582;28;20209;-49
2024/01/19 02:15:05;;;;;;;1.63;1.53;;;0.00;99.90;;;;;;5035048;28;20563;-51
2024/01/19 02:17:32;;;;;;;1.67;1.57;;;0.00;99.90;;;;;;5014549;28;20214;-49
2024/01/19 02:19:59;;;;;;;4.07;1.60;;;-0.10;99.90;;;;;;5042606;28;20222;-48
2024/01/19 02:22:28;;;;;;;3.73;1.67;;;-0.10;99.90;;;;;;5037875;28;20216;-51
2024/01/19 02:24:57;;;;;;;3.67;1.57;;;-0.10;99.90;;;;;;5040203;28;20560;-50
2024/01/19 02:27:24;;;;;;;1.47;1.30;;;-0.20;99.90;;;;;;5029319;28;20241;-48
2024/01/19 02:29:51;;;;;;;1.40;1.20;;;-0.20;99.90;;;;;;5036080;28;20210;-47
2024/01/19 02:32:18;;;;;;;2.70;1.40;;;-0.30;99.90;;;;;;5018456;28;20655;-47
2024/01/19 02:34:46;;;;;;;4.73;1.40;;;-0.30;99.90;;;;;;5023984;28;20932;-48
2024/01/19 02:37:14;;;;;;;1.87;1.30;;;-0.30;99.90;;;;;;5036880;28;20197;-50
2024/01/19 02:39:41;;;;;;;2.00;1.40;;;-0.30;99.90;;;;;;5039080;28;20992;-50
2024/01/19 02:42:09;;;;;;;1.33;1.23;;;-0.30;99.90;;;;;;5031060;28;20261;-48
2024/01/19 02:44:37;;;;;;;2.83;1.60;;;-0.20;99.90;;;;;;5035892;28;20190;-47
2024/01/19 02:47:04;;;;;;;2.53;1.10;;;-0.20;99.90;;;;;;5031895;28;20712;-47
2024/01/19 02:49:31;;;;;;;1.83;1.50;;;-0.20;99.90;;;;;;5001731;28;20424;-50
2024/01/19 02:51:57;;;;;;;2.47;1.30;;;-0.20;99.90;;;;;;5043544;28;20549;-47
2024/01/19 02:54:24;;;;;;;2.10;1.37;;;-0.10;99.90;;;;;;5037361;28;20590;-50
2024/01/19 02:56:51;;;;;;;1.83;1.03;;;-0.10;99.90;;;;;;5034752;28;20202;-47
2024/01/19 02:59:19;;;;;;;1.50;1.00;;;-0.10;99.90;;;;;;5036635;28;20225;-48
2024/01/19 03:01:46;;;;;;;1.77;0.90;;;-0.10;99.90;;;;;;5035353;28;20199;-48
2024/01/19 03:04:13;;;;;;;4.10;0.90;;;-0.10;99.90;;;;;;5041150;28;20292;-48
2024/01/19 03:06:40;;;;;;;3.00;1.20;;;0.00;99.90;;;;;;5011484;28;20866;-51
2024/01/19 03:09:07;;;;;;;1.23;1.10;;;0.00;99.90;;;;;;5042068;28;20990;-49
2024/01/19 03:11:33;;;;;;;2.20;0.80;;;0.00;99.90;;;;;;5043965;28;20205;-49
2024/01/19 03:14:00;;;;;;;1.67;1.03;;;0.00;99.90;;;;;;5038068;28;20570;-47
2024/01/19 03:16:28;;;;;;;1.53;0.83;;;0.00;99.90;;;;;;5042845;28;20248;-48
2024/01/19 03:19:00;;;;;;;1.50;1.40;;;0.10;99.90;;;;;;5050586;28;20229;-48
2024/01/19 03:21:27;;;;;;;1.50;0.80;;;0.10;99.90;;;;;;5012604;28;20706;-47
2024/01/19 03:23:54;;;;;;;3.53;0.80;;;0.10;99.90;;;;;;5045135;28;20244;-49
2024/01/19 03:26:21;;;;;;;1.80;0.97;;;0.10;99.90;;;;;;5038445;28;20195;-49
2024/01/19 03:28:47;;;;;;;0.70;0.70;;;0.10;99.90;;;;;;5029722;28;20234;-48
2024/01/19 03:31:14;;;;;;;3.20;1.10;;;0.10;99.90;;;;;;5038872;28;20214;-51
2024/01/19 03:33:42;;;;;;;2.73;0.73;;;0.10;99.90;;;;;;5031427;28;20195;-49
2024/01/19 03:36:09;;;;;;;1.77;0.80;;;0.10;99.90;;;;;;5014562;28;20890;-47
2024/01/19 03:38:36;;;;;;;1.90;1.17;;;0.10;99.90;;;;;;5027254;28;20214;-51
2024/01/19 03:41:03;;;;;;;2.37;0.80;;;0.10;99.90;;;;;;5036178;28;20902;-48
2024/01/19 03:43:30;;;;;;;1.23;0.60;;;0.10;99.90;;;;;;5032717;28;20896;-48
2024/01/19 03:45:57;;;;;;;0.93;0.40;;;0.10;99.90;;;;;;5027527;28;20255;-47
2024/01/19 03:48:24;;;;;;;0.83;0.80;;;0.10;99.90;;;;;;5030508;28;20223;-48
2024/01/19 03:50:52;;;;;;;3.93;1.00;;;0.20;99.90;;;;;;5006841;28;20742;-47
2024/01/19 03:53:19;;;;;;;2.17;0.90;;;0.10;99.90;;;;;;5049976;28;20187;-49
2024/01/19 03:55:45;;;;;;;1.60;0.90;;;0.10;99.90;;;;;;5041284;28;20194;-47
2024/01/19 03:58:12;;;;;;;1.70;0.60;;;0.10;99.90;;;;;;5041590;28;20733;-52
2024/01/19 04:00:39;;;;;;;3.63;1.00;;;0.10;99.90;;;;;;5033676;28;20229;-49
2024/01/19 04:03:06;;;;;;;1.93;0.87;;;0.10;99.90;;;;;;5050871;28;20207;-52
2024/01/19 04:05:33;;;;;;;1.17;0.50;;;0.10;99.90;;;;;;5003032;28;20218;-53
2024/01/19 04:08:02;;;;;;;1.80;1.00;;;0.10;99.90;;;;;;5049413;28;20202;-52
2024/01/19 04:10:29;;;;;;;3.27;0.90;;;0.10;99.90;;;;;;5039121;28;20243;-48
2024/01/19 04:12:56;;;;;;;1.13;0.77;;;0.10;99.90;;;;;;5042050;28;20210;-48
2024/01/19 04:15:23;;;;;;;1.90;0.70;;;0.10;99.90;;;;;;5041743;28;20256;-47
2024/01/19 04:17:50;;;;;;;0.70;0.70;;;0.10;99.90;;;;;;5044768;28;20202;-46
2024/01/19 04:20:16;;;;;;;1.07;1.00;;;0.20;99.90;;;;;;5027895;28;20292;-48
2024/01/19 04:22:43;;;;;;;1.47;0.80;;;0.20;99.90;;;;;;5011366;28;20218;-47
2024/01/19 04:25:11;;;;;;;1.23;0.80;;;0.20;99.90;;;;;;5046377;28;20207;-47
2024/01/19 04:27:38;;;;;;;1.30;0.77;;;0.20;99.90;;;;;;5031243;28;21607;-48
2024/01/19 04:30:06;;;;;;;0.97;0.70;;;0.20;99.90;;;;;;5043140;28;20246;-50
2024/01/19 04:32:33;;;;;;;2.93;0.73;;;0.20;99.90;;;;;;5038363;28;20264;-47
2024/01/19 04:35:00;;;;;;;2.70;0.77;;;0.20;99.90;;;;;;5041228;28;20256;-47
2024/01/19 04:37:27;;;;;;;2.80;1.47;;;0.30;99.90;;;;;;5018578;28;20297;-48
2024/01/19 04:39:54;;;;;;;6.10;0.90;;;0.30;99.90;;;;;;5039984;28;20226;-47
2024/01/19 04:42:22;;;;;;;5.70;0.67;;;0.30;99.90;;;;;;5015897;28;20218;-50
2024/01/19 04:44:49;;;;;;;2.53;0.70;;;0.40;99.90;;;;;;5032547;28;20233;-47
2024/01/19 04:47:15;;;;;;;2.20;0.40;;;0.30;99.90;;;;;;5011159;28;20191;-50
2024/01/19 04:49:42;;;;;;;2.00;0.87;;;0.40;99.90;;;;;;5024585;28;20311;-47
2024/01/19 04:52:09;;;;;;;1.00;0.60;;;0.40;99.90;;;;;;5036162;28;20561;-49
2024/01/19 04:54:36;;;;;;;3.00;0.70;;;0.40;99.90;;;;;;5019906;28;20192;-49
2024/01/19 04:57:03;;;;;;;2.47;0.77;;;0.40;99.90;;;;;;5036117;28;20242;-48
2024/01/19 04:59:31;;;;;;;2.97;0.90;;;0.40;99.90;;;;;;5034454;28;20227;-46
2024/01/19 05:01:58;;;;;;;1.07;0.70;;;0.40;99.90;;;;;;5038907;28;20576;-50
2024/01/19 05:04:25;;;;;;;1.70;0.80;;;0.40;99.90;;;;;;5019106;28;20914;-48
2024/01/19 05:06:53;;;;;;;4.17;0.90;;;0.40;99.90;;;;;;5033228;28;20194;-46
2024/01/19 05:09:19;;;;;;;1.23;1.10;;;0.40;99.90;;;;;;5004918;28;20219;-46
2024/01/19 05:11:46;;;;;;;1.47;0.80;;;0.30;99.90;;;;;;5036919;28;20221;-47
2024/01/19 05:14:13;;;;;;;2.40;0.80;;;0.30;99.90;;;;;;5038264;28;20195;-50
2024/01/19 05:16:41;;;;;;;2.57;0.90;;;0.30;99.90;;;;;;5031310;28;20890;-49
2024/01/19 05:19:08;;;;;;;2.80;0.93;;;0.30;99.90;;;;;;5032481;28;20215;-48
2024/01/19 05:21:35;;;;;;;2.43;0.77;;;0.30;99.90;;;;;;5036017;28;20215;-46
2024/01/19 05:24:02;;;;;;;2.10;0.90;;;0.40;99.90;;;;;;5023618;28;20704;-46
2024/01/19 05:26:29;;;;;;;2.07;0.63;;;0.40;99.90;;;;;;5043992;28;20859;-49
2024/01/19 05:28:56;;;;;;;3.77;0.87;;;0.40;99.90;;;;;;5039291;28;20214;-48
2024/01/19 05:31:23;;;;;;;3.27;1.00;;;0.40;99.90;;;;;;5024902;28;20199;-49
2024/01/19 05:33:51;;;;;;;1.90;0.97;;;0.40;99.90;;;;;;5035294;28;20218;-48
2024/01/19 05:36:20;;;;;;;1.00;0.90;;;0.40;99.90;;;;;;5022609;28;20214;-46
2024/01/19 05:38:47;;;;;;;5.03;1.27;;;0.40;99.90;;;;;;4998554;28;20237;-48
2024/01/19 05:41:19;;;;;;;2.27;1.10;;;0.40;99.90;;;;;;5033088;28;20207;-49
2024/01/19 05:43:46;;;;;;;3.03;1.10;;;0.40;99.90;;;;;;5040365;28;20234;-46
2024/01/19 05:46:14;;;;;;;2.00;1.33;;;0.40;99.90;;;;;;5030313;28;20199;-47
2024/01/19 05:48:41;;;;;;;1.40;0.83;;;0.40;99.90;;;;;;5038001;28;20700;-47
2024/01/19 05:51:13;;;;;;;1.93;0.90;;;0.40;99.90;;;;;;5017637;28;20203;-47
2024/01/19 05:53:40;;;;;;;2.60;1.13;;;0.40;99.90;;;;;;5003658;28;20253;-48
2024/01/19 05:56:07;;;;;;;1.13;1.00;;;0.30;99.90;;;;;;5032758;28;20253;-49
2024/01/19 05:58:34;;;;;;;3.37;0.87;;;0.30;99.90;;;;;;5038673;28;20272;-47
2024/01/19 06:01:02;;;;;;;1.83;0.90;;;0.30;99.90;;;;;;5041489;28;20195;-50
2024/01/19 06:03:30;;;;;;;2.60;0.80;;;0.30;99.90;;;;;;5035490;28;20218;-49
2024/01/19 06:05:57;;;;;;;3.33;0.97;;;0.30;99.90;;;;;;5027772;28;20207;-47
2024/01/19 06:08:25;;;;;;;1.60;0.90;;;0.30;99.90;;;;;;5014849;28;20223;-46
2024/01/19 06:10:52;;;;;;;3.13;1.63;;;0.30;99.90;;;;;;5009609;28;20576;-48
2024/01/19 06:13:19;;;;;;;3.50;1.00;;;0.30;99.90;;;;;;5033904;28;20831;-49
2024/01/19 06:15:46;;;;;;;3.87;1.00;;;0.30;99.90;;;;;;5039037;28;20210;-46
2024/01/19 06:18:13;;;;;;;1.40;0.67;;;0.30;99.90;;;;;;5036649;28;20717;-47
2024/01/19 06:20:41;;;;;;;2.83;1.03;;;0.30;99.90;;;;;;5032342;28;20234;-50
2024/01/19 06:23:08;;;;;;;4.20;1.30;;;0.30;99.90;;;;;;5020713;28;20370;-49
2024/01/19 06:25:37;;;;;;;2.23;1.20;;;0.30;99.90;;;;;;5015598;28;21653;-48
2024/01/19 06:28:05;;;;;;;1.07;0.97;;;0.40;99.90;;;;;;5043415;28;20195;-47
2024/01/19 06:30:32;;;;;;;2.23;0.93;;;0.40;99.90;;;;;;5019290;28;20234;-49
2024/01/19 06:32:59;;;;;;;2.87;1.20;;;0.50;99.90;;;;;;5032180;28;20199;-48
2024/01/19 06:35:26;;;;;;;1.33;0.90;;;0.50;99.90;;;;;;5032075;28;20188;-51
2024/01/19 06:37:53;;;;;;;2.33;0.80;;;0.50;99.90;;;;;;5029636;28;20206;-50
2024/01/19 06:40:20;;;;;;;2.80;1.10;;;0.50;99.90;;;;;;5023903;28;20227;-50
2024/01/19 06:42:48;;;;;;;6.47;3.30;;;0.50;99.90;;;;;;5014359;28;20238;-50
2024/01/19 06:45:17;;;;;;;4.63;0.87;;;0.50;99.90;;;;;;5037113;28;20211;-50
2024/01/19 06:47:44;;;;;;;2.37;1.13;;;0.50;99.90;;;;;;5038644;28;20195;-50
2024/01/19 06:50:11;;;;;;;3.20;0.90;;;0.40;99.90;;;;;;5032895;28;20211;-52
2024/01/19 06:52:38;;;;;;;3.03;0.90;;;0.40;99.90;;;;;;5028663;28;20798;-47
2024/01/19 06:55:06;;;;;;;2.53;0.77;;;0.40;99.90;;;;;;5027419;28;20253;-49
2024/01/19 06:57:33;;;;;;;2.77;1.03;;;0.40;99.90;;;;;;5014850;28;20232;-49
2024/01/19 07:00:01;;;;;;;2.50;1.00;;;0.40;99.90;;;;;;5038793;28;20219;-51
2024/01/19 07:02:28;;;;;;;5.70;1.20;;;0.30;99.90;;;;;;5035281;28;20794;-49
2024/01/19 07:04:55;;;;;;;1.50;1.03;;;0.30;99.90;;;;;;5038727;28;20207;-47
2024/01/19 07:07:22;;;;;;;2.03;1.10;;;0.30;99.90;;;;;;5028932;28;20268;-45
2024/01/19 07:09:49;;;;;;;7.90;1.70;;;0.30;99.90;;;;;;5041380;28;20223;-45
2024/01/19 07:12:16;;;;;;;2.30;0.90;;;0.30;99.90;;;;;;4995170;28;20723;-44
2024/01/19 07:14:43;;;;;;;3.90;1.10;;;0.20;99.90;;;;;;5029532;28;20196;-45
2024/01/19 07:17:12;;;;;;;3.50;1.10;;;0.20;99.90;;;;;;5036162;28;20195;-50
2024/01/19 07:19:39;;;;;;;1.17;0.80;;;0.20;99.90;;;;;;5028434;28;20244;-48
2024/01/19 07:22:06;;;;;;;4.00;1.00;;;0.20;99.90;;;;;;5004741;28;20337;-46
2024/01/19 07:24:35;;;;;;;3.83;1.07;;;0.20;99.90;;;;;;5016348;28;21757;-45
2024/01/19 07:27:02;;;;;;;2.57;1.00;;;0.20;99.90;;;;;;5008340;28;20199;-45
2024/01/19 07:29:30;;;;;;;1.60;1.20;;;0.10;99.90;;;;;;5027067;28;20230;-46
2024/01/19 07:31:58;;;;;;;1.73;1.20;;;0.10;99.90;;;;;;5027711;28;20773;-45
2024/01/19 07:34:32;;;;;;;5.73;1.57;;;0.10;99.90;;;;;;5040421;28;20199;-49
2024/01/19 07:37:03;;;;;;;4.30;1.50;;;0.10;99.90;;;;;;5015064;28;21052;-47
2024/01/19 07:39:30;;;;;;;3.43;1.20;;;0.00;99.90;;;;;;5033746;28;20639;-49
2024/01/19 07:41:58;;;;;;;3.03;1.23;;;0.00;99.90;;;;;;5002528;28;20248;-51
2024/01/19 07:44:25;;;;;;;3.03;1.20;;;0.00;99.90;;;;;;5042449;28;20694;-45
2024/01/19 07:46:52;;;;;;;2.10;1.30;;;0.00;99.90;;;;;;5009755;28;21601;-51
2024/01/19 07:49:21;;;;;;;1.30;0.90;;;0.10;99.90;;;;;;5044790;28;20210;-46
2024/01/19 07:51:50;;;;;;;1.73;1.00;;;0.10;99.90;;;;;;5029597;28;20207;-54
2024/01/19 07:54:19;;;;;;;4.17;1.40;;;0.00;99.90;;;;;;5023809;28;20209;-48
2024/01/19 07:56:47;;;;;;;6.00;1.63;;;0.10;99.90;;;;;;5018419;28;20670;-51
2024/01/19 07:59:18;;;;;;;3.70;1.37;;;0.00;99.90;;;;;;5030490;28;20968;-52
2024/01/19 08:01:46;;;;;;;4.90;1.43;;;0.00;99.90;;;;;;5029367;28;20282;-49
2024/01/19 08:04:15;;;;;;;1.93;1.13;;;0.00;99.90;;;;;;5022551;28;20919;-46
2024/01/19 08:06:43;;;;;;;5.83;1.20;;;0.00;99.90;;;;;;5038179;28;20211;-50
2024/01/19 08:09:21;;;;;;;2.57;1.17;;;0.00;99.90;;;;;;5030292;28;20226;-46
2024/01/19 08:11:48;;;;;;;2.50;1.40;;;0.00;99.90;;;;;;5008294;28;20211;-47
2024/01/19 08:14:22;;;;;;;3.90;1.37;;;0.10;99.90;;;;;;5035643;28;20190;-46
2024/01/19 08:16:49;;;;;;;5.20;1.20;;;0.00;99.90;;;;;;5033545;28;20212;-52
2024/01/19 08:19:23;;;;;;;6.33;2.13;;;0.00;99.90;;;;;;5039993;28;20403;-50
2024/01/19 08:21:50;;;;;;;12.53;1.50;;;0.10;99.90;;;;;;5042488;28;20281;-52
2024/01/19 08:24:36;;;;;;;6.23;1.23;;;0.10;99.90;;;;;;5037856;28;20263;-48
2024/01/19 08:27:04;;;;;;;4.53;1.57;;;0.10;99.90;;;;;;5012480;28;20203;-52
2024/01/19 08:29:32;;;;;;;4.57;1.27;;;0.20;99.90;;;;;;5005096;28;20346;-49
2024/01/19 08:32:06;;;;;;;3.57;1.17;;;0.10;99.90;;;;;;5024540;28;20295;-45
2024/01/19 08:34:34;;;;;;;2.60;1.10;;;0.20;99.90;;;;;;5035383;28;20249;-51
2024/01/19 08:37:03;;;;;;;4.47;1.47;;;0.20;99.90;;;;;;5025695;28;20252;-46
2024/01/19 08:39:35;;;;;;;5.27;1.43;;;0.30;99.90;;;;;;5024547;28;20553;-49
2024/01/19 08:42:11;;;;;;;4.37;1.10;;;0.40;99.90;;;;;;5021778;28;20195;-51
2024/01/19 08:44:39;;;;;;;4.67;1.77;;;0.40;99.90;;;;;;5010024;28;20299;-51
2024/01/19 08:47:10;;;;;;;4.93;1.30;;;0.40;99.90;;;;;;5034483;28;20203;-48
2024/01/19 08:50:02;;;;;;;3.33;1.00;;;0.40;99.90;;;;;;5012155;28;21126;-48
2024/01/19 08:52:38;;;;;;;2.87;1.20;;;0.50;99.90;;;;;;5034242;28;20654;-52
2024/01/19 08:55:25;;;;;;;2.50;1.20;;;0.50;99.90;;;;;;5039396;28;20195;-46
2024/01/19 08:57:57;;;;;;;2.47;1.13;;;0.50;99.90;;;;;;5003246;28;20282;-45
2024/01/19 09:00:25;;;;;;;3.63;1.20;;;0.50;99.90;;;;;;5037852;28;20201;-46
2024/01/19 09:02:52;;;;;;;5.33;0.93;;;0.60;99.90;;;;;;5029785;28;20195;-54
2024/01/19 09:05:24;;;;;;;6.60;1.53;;;0.60;99.90;;;;;;5017725;28;20252;-46
2024/01/19 09:07:54;;;;;;;1.57;1.07;;;0.70;99.90;;;;;;5047459;28;20685;-47
2024/01/19 09:10:34;;;;;;;2.30;0.97;;;0.70;99.90;;;;;;5006955;28;23545;-46
2024/01/19 09:13:04;;;;;;;4.13;0.93;;;0.70;99.90;;;;;;5017898;28;20694;-50
2024/01/19 09:15:49;;;;;;;4.33;1.20;;;0.70;99.90;;;;;;5032025;28;20207;-47
2024/01/19 09:18:26;;;;;;;5.37;1.30;;;0.70;99.90;;;;;;5029538;28;20191;-47
2024/01/19 09:20:53;;;;;;;4.37;1.10;;;0.80;99.90;;;;;;5044975;28;20198;-48
2024/01/19 09:23:24;;;;;;;3.10;1.10;;;0.90;99.90;;;;;;5034775;28;20248;-50
2024/01/19 09:25:53;;;;;;;3.73;1.20;;;0.90;99.90;;;;;;5026911;28;20219;-48
2024/01/19 09:28:24;;;;;;;5.60;1.30;;;0.80;99.90;;;;;;5010124;28;25148;-52
2024/01/19 09:30:51;;;;;;;4.13;1.40;;;0.90;99.90;;;;;;5024164;28;20202;-51
2024/01/19 09:33:22;;;;;;;6.60;1.40;;;0.90;99.90;;;;;;5029383;28;20195;-51
2024/01/19 09:35:51;;;;;;;2.83;0.77;;;0.90;99.90;;;;;;5012826;28;20227;-47
2024/01/19 09:38:26;;;;;;;6.93;1.27;;;0.90;99.90;;;;;;5028895;28;20540;-50
2024/01/19 09:41:04;;;;;;;3.97;1.07;;;1.00;99.90;;;;;;5021806;28;20207;-51
2024/01/19 09:43:43;;;;;;;3.90;1.17;;;1.00;99.90;;;;;;5033104;28;20872;-49
2024/01/19 09:46:28;;;;;;;7.27;1.30;;;1.00;99.90;;;;;;4993168;28;21060;-47
2024/01/19 09:49:07;;;;;;;3.90;1.50;;;1.00;99.90;;;;;;5018274;28;20226;-49
2024/01/19 09:51:54;;;;;;;3.67;1.27;;;1.00;99.90;;;;;;5039720;28;20191;-50
2024/01/19 09:54:29;;;;;;;1.60;0.90;;;1.10;99.90;;;;;;5020889;28;20966;-49
2024/01/19 09:56:59;;;;;;;4.13;1.30;;;1.10;99.90;;;;;;5033672;28;20203;-50
2024/01/19 09:59:31;;;;;;;3.23;1.00;;;1.20;99.90;;;;;;4999056;28;21846;-48
2024/01/19 10:02:02;;;;;;;2.07;1.10;;;1.20;99.90;;;;;;5038896;28;20195;-47
2024/01/19 10:04:39;;;;;;;8.27;1.37;;;1.20;99.90;;;;;;5018418;28;20288;-48
2024/01/19 10:07:11;;;;;;;5.23;1.40;;;1.20;99.90;;;;;;5036052;28;20589;-47
2024/01/19 10:09:46;;;;;;;5.80;1.10;;;1.20;99.90;;;;;;5024661;28;20238;-49
2024/01/19 10:12:19;;;;;;;2.53;1.30;;;1.30;99.90;;;;;;5032099;28;20215;-52
2024/01/19 10:14:53;;;;;;;5.37;1.40;;;1.30;99.90;;;;;;5010876;28;20210;-48
2024/01/19 10:17:22;;;;;;;5.47;1.53;;;1.40;99.90;;;;;;5040432;28;20690;-48
2024/01/19 10:20:05;;;;;;;4.43;1.30;;;1.40;99.90;;;;;;5038063;28;20990;-47
2024/01/19 10:22:45;;;;;;;5.13;1.57;;;1.50;99.90;;;;;;5035007;28;20210;-47
2024/01/19 10:25:14;;;;;;;6.03;1.47;;;1.50;99.90;;;;;;5034342;28;20588;-46
2024/01/19 10:27:48;;;;;;;3.57;1.10;;;1.60;99.90;;;;;;5034965;28;20206;-47
2024/01/19 10:30:19;;;;;;;11.07;1.50;;;1.60;99.90;;;;;;5021734;28;20219;-50
2024/01/19 10:32:49;;;;;;;6.37;1.23;;;1.70;99.90;;;;;;5022980;28;20200;-47
2024/01/19 10:35:18;;;;;;;3.13;1.10;;;1.80;99.90;;;;;;5027998;28;20200;-47
2024/01/19 10:38:04;;;;;;;2.80;1.03;;;1.90;99.90;;;;;;5033424;28;21748;-46
2024/01/19 10:40:31;;;;;;;7.57;1.30;;;2.00;99.90;;;;;;5037630;28;20216;-51
2024/01/19 10:43:04;;;;;;;10.87;1.63;;;2.10;99.90;;;;;;5029506;28;20698;-52
2024/01/19 10:45:35;;;;;;;6.47;1.20;;;2.10;99.90;;;;;;5005805;28;20223;-49
2024/01/19 10:48:04;;;;;;;6.07;1.67;;;2.10;99.90;;;;;;5035141;28;20215;-46
2024/01/19 10:50:32;;;;;;;4.37;1.60;;;2.10;99.90;;;;;;5029869;28;20203;-49
2024/01/19 10:53:12;;;;;;;6.43;1.70;;;2.10;99.90;;;;;;5031037;28;20734;-48
2024/01/19 10:55:53;;;;;;;7.33;1.80;;;2.10;99.90;;;;;;5033822;28;20179;-48
2024/01/19 10:58:22;;;;;;;5.60;1.57;;;2.20;99.90;;;;;;5019373;28;20628;-52
2024/01/19 11:00:51;;;;;;;6.63;1.70;;;2.10;99.90;;;;;;5005770;28;23011;-48
2024/01/19 11:03:21;;;;;;;7.80;1.67;;;2.20;99.90;;;;;;5038295;28;20274;-51
2024/01/19 11:05:51;;;;;;;5.40;1.23;;;2.30;99.90;;;;;;5036691;28;20207;-46
2024/01/19 11:08:18;;;;;;;4.97;1.60;;;2.30;99.90;;;;;;5025932;28;21823;-49
2024/01/19 11:10:48;;;;;;;9.77;1.33;;;2.30;99.90;;;;;;5034747;28;20198;-48
2024/01/19 11:13:16;;;;;;;3.13;1.23;;;2.30;99.90;;;;;;5024524;28;20261;-47
2024/01/19 11:15:50;;;;;;;6.30;1.30;;;2.20;99.90;;;;;;5010858;28;20187;-48
2024/01/19 11:18:17;;;;;;;2.37;0.90;;;2.20;99.90;;;;;;5034405;28;20208;-45
2024/01/19 11:20:45;;;;;;;5.87;2.10;;;2.20;99.90;;;;;;5036828;28;20195;-50
2024/01/19 11:23:13;;;;;;;3.90;0.90;;;2.20;99.90;;;;;;5031968;28;20265;-49
2024/01/19 11:25:57;;;;;;;2.93;1.13;;;2.10;99.90;;;;;;5012874;28;20235;-48
2024/01/19 11:28:34;;;;;;;5.17;1.40;;;2.00;99.90;;;;;;5018822;28;20227;-46
2024/01/19 11:31:14;;;;;;;4.37;1.10;;;2.00;99.90;;;;;;5005603;28;20308;-49
2024/01/19 11:33:42;;;;;;;5.93;1.50;;;1.90;99.90;;;;;;5041962;28;20203;-48
2024/01/19 11:36:10;;;;;;;3.60;1.30;;;1.80;99.90;;;;;;5034371;28;20188;-46
2024/01/19 11:38:48;;;;;;;4.33;1.77;;;1.90;99.90;;;;;;5035009;28;20305;-48
2024/01/19 11:41:48;;;;;;;2.00;0.97;;;1.90;99.90;;;;;;5032927;28;20198;-47
2024/01/19 11:44:47;;;;;;;3.80;1.07;;;1.90;99.90;;;;;;4996468;28;20271;-46
2024/01/19 11:47:42;;;;;;;4.47;1.00;;;1.90;99.90;;;;;;4945244;28;20197;-46
2024/01/19 11:50:12;;;;;;;5.10;1.33;;;1.80;99.90;;;;;;5003449;28;20273;-45
2024/01/19 11:52:45;;;;;;;4.20;1.03;;;1.80;99.90;;;;;;5026065;28;20333;-48
2024/01/19 11:55:40;;;;;;;3.60;1.03;;;1.70;99.90;;;;;;5023443;28;20183;-50
2024/01/19 11:58:39;;;;;;;4.73;1.27;;;1.70;99.90;;;;;;5040300;28;20509;-50
2024/01/19 12:01:12;;;;;;;2.10;1.27;;;1.70;99.90;;;;;;4999606;28;20299;-52
2024/01/19 12:03:51;;;;;;;4.37;1.60;;;1.70;99.90;;;;;;5016768;28;20559;-45
2024/01/19 12:06:22;;;;;;;2.70;1.17;;;1.60;99.90;;;;;;5038634;28;20979;-49
2024/01/19 12:09:06;;;;;;;3.73;1.10;;;1.60;99.90;;;;;;5029468;28;20732;-48
2024/01/19 12:11:43;;;;;;;3.37;0.93;;;1.60;99.90;;;;;;5038630;28;20282;-47
2024/01/19 12:14:14;;;;;;;3.43;1.07;;;1.60;99.90;;;;;;5039453;28;20926;-46
2024/01/19 12:16:45;;;;;;;5.03;1.33;;;1.60;99.90;;;;;;5018737;28;20199;-47
2024/01/19 12:19:23;;;;;;;5.90;1.17;;;1.60;99.90;;;;;;4995242;28;20231;-49
2024/01/19 12:21:50;;;;;;;3.43;1.80;;;1.60;99.90;;;;;;5042873;28;20202;-49
2024/01/19 12:24:23;;;;;;;2.87;1.30;;;1.70;99.90;;;;;;5031746;28;20200;-49
2024/01/19 12:26:51;;;;;;;1.70;1.17;;;1.70;99.90;;;;;;5041281;28;20657;-48
2024/01/19 12:29:36;;;;;;;3.37;1.37;;;1.80;99.90;;;;;;5040223;28;20216;-47
2024/01/19 12:32:10;;;;;;;3.30;1.40;;;1.80;99.90;;;;;;5018917;28;20675;-48
2024/01/19 12:34:38;;;;;;;2.87;1.30;;;1.80;99.90;;;;;;5011018;28;20203;-46
2024/01/19 12:37:05;;;;;;;4.67;1.67;;;1.80;99.90;;;;;;5042379;28;20202;-49
2024/01/19 12:39:32;;;;;;;3.63;1.83;;;1.80;99.90;;;;;;5032858;28;20302;-45
2024/01/19 12:42:00;;;;;;;2.50;1.43;;;1.90;99.90;;;;;;5030650;28;20210;-48
2024/01/19 12:44:27;;;;;;;3.13;1.30;;;1.90;99.90;;;;;;5042713;28;20276;-47
2024/01/19 12:46:54;;;;;;;4.20;1.30;;;1.90;99.90;;;;;;5036160;28;20238;-49
2024/01/19 12:49:21;;;;;;;5.87;1.50;;;2.00;99.90;;;;;;5007172;28;20324;-46
2024/01/19 12:51:50;;;;;;;1.43;0.97;;;1.90;99.90;;;;;;5047133;28;20249;-46
2024/01/19 12:54:17;;;;;;;1.67;1.10;;;1.90;99.90;;;;;;5025844;28;20207;-47
2024/01/19 12:56:47;;;;;;;3.37;1.00;;;1.90;99.90;;;;;;5029038;28;20269;-47
2024/01/19 12:59:19;;;;;;;3.13;0.73;;;1.80;99.90;;;;;;5036764;28;20216;-48
2024/01/19 13:01:47;;;;;;;1.23;0.70;;;1.80;99.90;;;;;;5022667;28;20220;-46
2024/01/19 13:04:16;;;;;;;2.40;1.20;;;1.70;99.90;;;;;;5005670;28;20203;-47
2024/01/19 13:06:44;;;;;;;3.23;1.57;;;1.60;99.90;;;;;;5039566;28;20207;-47